Time;durP1;ratioP1;P1;durP2;ratioP2;P2;SDS_P1;SDS_P2;PMS_P1;PMS_P2;Temp;Humidity;BMP_temperature;BMP_pressure;BME280_temperature;BME280_humidity;BME280_pressure;Samples;Min_cycle;Max_cycle;Signal;HPM_P1;HPM_P2
2024/04/09 00:00:45;;;;;;;1.30;0.70;;;;;;;12.83;100.00;100212.34;105914;1261;73179;-56
2024/04/09 00:03:12;;;;;;;3.00;1.00;;;;;;;12.81;100.00;100213.15;105738;1262;61242;-56
2024/04/09 00:05:40;;;;;;;2.90;0.80;;;;;;;12.82;100.00;100218.71;106055;1260;61221;-55
2024/04/09 00:08:13;;;;;;;1.80;0.80;;;;;;;12.84;100.00;100216.82;105668;1275;73794;-56
2024/04/09 00:10:40;;;;;;;3.30;0.80;;;;;;;12.86;100.00;100219.39;105693;1260;67099;-55
2024/04/09 00:13:07;;;;;;;2.70;0.90;;;;;;;12.89;100.00;100220.52;105821;1261;72887;-55
2024/04/09 00:15:36;;;;;;;2.20;0.90;;;;;;;12.91;100.00;100215.55;105718;1260;61330;-56
2024/04/09 00:18:14;;;;;;;2.10;0.80;;;;;;;12.95;100.00;100219.13;105664;1263;62716;-56
2024/04/09 00:20:42;;;;;;;2.10;0.90;;;;;;;12.98;100.00;100221.34;105674;1263;74621;-56
2024/04/09 00:23:18;;;;;;;2.10;0.90;;;;;;;13.00;100.00;100216.38;106074;1263;67270;-54
2024/04/09 00:25:45;;;;;;;2.30;1.00;;;;;;;13.02;100.00;100215.71;105706;1260;73045;-54
2024/04/09 00:28:12;;;;;;;5.50;1.40;;;;;;;13.04;100.00;100217.94;105878;1267;61180;-54
2024/04/09 00:30:39;;;;;;;3.30;1.20;;;;;;;13.06;100.00;100214.59;105815;1263;62134;-55
2024/04/09 00:33:09;;;;;;;2.20;1.10;;;;;;;13.08;100.00;100212.70;105860;1262;74955;-54
2024/04/09 00:35:37;;;;;;;2.60;0.90;;;;;;;13.10;100.00;100212.25;105768;1263;68870;-55
2024/04/09 00:38:06;;;;;;;3.00;1.00;;;;;;;13.12;100.00;100213.36;105892;1260;73058;-56
2024/04/09 00:40:36;;;;;;;1.90;1.00;;;;;;;13.13;100.00;100213.70;108367;1259;62115;-55
2024/04/09 00:43:03;;;;;;;2.20;1.00;;;;;;;13.14;100.00;100216.37;107258;1263;61901;-54
2024/04/09 00:45:30;;;;;;;1.90;1.00;;;;;;;13.14;100.00;100217.09;105757;1266;75106;-54
2024/04/09 00:47:59;;;;;;;2.30;1.00;;;;;;;13.15;100.00;100223.20;106500;1262;67458;-56
2024/04/09 00:50:26;;;;;;;2.90;0.90;;;;;;;13.14;100.00;100224.48;106068;1261;71178;-55
2024/04/09 00:52:55;;;;;;;2.60;0.90;;;;;;;13.13;100.00;100222.54;105618;1261;61311;-54
2024/04/09 00:55:25;;;;;;;2.40;0.80;;;;;;;13.11;100.00;100223.34;107319;1262;61256;-54
2024/04/09 00:57:52;;;;;;;3.00;1.20;;;;;;;13.09;100.00;100218.77;105693;1264;74612;-54
2024/04/09 01:00:19;;;;;;;1.90;0.90;;;;;;;13.08;100.00;100215.05;105718;1263;67001;-54
2024/04/09 01:02:49;;;;;;;1.80;0.90;;;;;;;13.06;100.00;100215.13;106101;1261;71556;-54
2024/04/09 01:05:16;;;;;;;5.20;0.90;;;;;;;13.05;100.00;100213.38;105454;1264;61660;-54
2024/04/09 01:07:43;;;;;;;4.50;0.90;;;;;;;13.04;100.00;100215.77;106858;1262;61212;-55
2024/04/09 01:10:10;;;;;;;3.00;0.90;;;;;;;13.04;100.00;100216.86;105651;1264;74276;-54
2024/04/09 01:12:37;;;;;;;1.80;0.70;;;;;;;13.04;100.00;100220.27;105925;1263;67469;-55
2024/04/09 01:15:04;;;;;;;2.00;0.70;;;;;;;13.03;100.00;100215.98;105587;1272;73069;-54
2024/04/09 01:17:32;;;;;;;2.50;0.90;;;;;;;13.05;100.00;100217.74;108667;1260;59023;-54
2024/04/09 01:19:59;;;;;;;5.40;0.80;;;;;;;13.04;100.00;100222.25;108757;1260;59136;-54
2024/04/09 01:22:30;;;;;;;3.90;0.70;;;;;;;13.05;100.00;100222.59;108659;1260;72701;-54
2024/04/09 01:24:57;;;;;;;2.30;1.00;;;;;;;13.05;100.00;100218.46;108687;1260;66985;-54
2024/04/09 01:27:25;;;;;;;2.70;0.70;;;;;;;13.05;100.00;100219.34;106771;1262;72443;-54
2024/04/09 01:29:53;;;;;;;2.10;0.90;;;;;;;13.06;100.00;100220.20;107074;1260;61339;-55
2024/04/09 01:32:21;;;;;;;2.20;0.80;;;;;;;13.06;100.00;100219.48;108153;1261;60296;-55
2024/04/09 01:34:48;;;;;;;2.20;0.90;;;;;;;13.06;100.00;100219.48;105889;1265;74942;-55
2024/04/09 01:37:17;;;;;;;2.90;0.90;;;;;;;13.07;100.00;100219.27;105772;1264;66386;-55
2024/04/09 01:39:45;;;;;;;1.30;0.70;;;;;;;13.07;100.00;100221.96;107240;1261;73633;-54
2024/04/09 01:42:12;;;;;;;2.50;0.80;;;;;;;13.06;100.00;100223.98;106988;1263;61313;-54
2024/04/09 01:44:39;;;;;;;1.10;0.60;;;;;;;13.05;100.00;100224.92;105813;1270;61347;-55
2024/04/09 01:47:06;;;;;;;1.60;0.70;;;;;;;13.03;100.00;100226.64;106788;1262;74873;-54
2024/04/09 01:49:33;;;;;;;1.70;0.80;;;;;;;13.02;100.00;100232.82;105715;1274;65380;-54
2024/04/09 01:51:59;;;;;;;2.40;0.70;;;;;;;13.01;100.00;100232.88;105737;1264;73290;-54
2024/04/09 01:54:26;;;;;;;2.20;0.80;;;;;;;13.00;100.00;100228.64;105711;1263;61285;-55
2024/04/09 01:56:53;;;;;;;2.00;0.70;;;;;;;12.98;100.00;100234.45;105738;1266;62162;-54
2024/04/09 01:59:20;;;;;;;1.50;0.60;;;;;;;12.97;100.00;100232.73;105688;1263;74783;-54
2024/04/09 02:01:46;;;;;;;1.60;0.70;;;;;;;12.95;100.00;100238.76;106203;1263;65905;-55
2024/04/09 02:04:13;;;;;;;3.70;0.90;;;;;;;12.94;100.00;100236.67;105678;1263;72897;-55
2024/04/09 02:06:42;;;;;;;1.20;0.70;;;;;;;12.92;100.00;100235.72;105688;1263;62239;-53
2024/04/09 02:09:10;;;;;;;5.50;0.70;;;;;;;12.89;100.00;100241.05;106505;1260;61547;-54
2024/04/09 02:11:37;;;;;;;3.60;0.70;;;;;;;12.85;100.00;100236.16;105913;1264;75301;-55
2024/04/09 02:14:04;;;;;;;2.40;0.80;;;;;;;12.82;100.00;100238.35;105841;1263;67358;-54
2024/04/09 02:16:31;;;;;;;3.90;0.70;;;;;;;12.79;100.00;100237.92;105875;1262;73100;-55
2024/04/09 02:18:58;;;;;;;4.10;1.00;;;;;;;12.77;100.00;100241.80;105879;1263;61330;-55
2024/04/09 02:21:26;;;;;;;3.40;0.90;;;;;;;12.75;100.00;100240.86;106529;1260;59934;-55
2024/04/09 02:23:53;;;;;;;2.40;1.10;;;;;;;12.72;100.00;100240.25;105891;1260;74859;-54
2024/04/09 02:26:21;;;;;;;2.90;0.80;;;;;;;12.70;100.00;100238.75;106135;1265;67104;-54
2024/04/09 02:28:48;;;;;;;1.70;0.70;;;;;;;12.67;100.00;100237.63;105855;1276;73118;-55
2024/04/09 02:31:14;;;;;;;1.60;0.90;;;;;;;12.66;100.00;100237.73;105747;1261;61301;-56
2024/04/09 02:33:42;;;;;;;3.40;0.90;;;;;;;12.63;100.00;100236.04;105809;1272;61327;-55
2024/04/09 02:36:11;;;;;;;1.10;0.80;;;;;;;12.61;100.00;100236.48;106005;1263;74841;-54
2024/04/09 02:38:38;;;;;;;2.70;0.70;;;;;;;12.59;100.00;100237.66;105734;1263;68258;-54
2024/04/09 02:41:06;;;;;;;1.30;0.70;;;;;;;12.57;100.00;100237.09;105750;1266;73713;-55
2024/04/09 02:43:34;;;;;;;4.00;0.70;;;;;;;12.54;100.00;100237.05;105845;1272;61316;-54
2024/04/09 02:46:01;;;;;;;1.90;0.60;;;;;;;12.50;100.00;100232.69;106264;1262;61292;-55
2024/04/09 02:48:28;;;;;;;2.00;0.80;;;;;;;12.47;100.00;100236.63;105796;1262;75283;-55
2024/04/09 02:50:56;;;;;;;1.90;0.70;;;;;;;12.45;100.00;100240.70;106113;1264;67606;-54
2024/04/09 02:53:24;;;;;;;1.20;0.60;;;;;;;12.43;100.00;100246.00;106144;1266;73059;-55
2024/04/09 02:56:21;;;;;;;2.20;0.70;;;;;;;12.40;100.00;100248.85;106106;1254;61266;-56
2024/04/09 02:58:47;;;;;;;0.90;0.70;;;;;;;12.39;100.00;100250.00;105855;1254;62438;-55
2024/04/09 03:01:14;;;;;;;2.40;0.80;;;;;;;12.37;100.00;100251.16;105995;1260;75077;-55
2024/04/09 03:03:41;;;;;;;1.60;0.90;;;;;;;12.36;100.00;100252.66;106359;1255;66840;-56
2024/04/09 03:06:09;;;;;;;6.70;0.80;;;;;;;12.34;100.00;100252.59;106007;1254;72703;-55
2024/04/09 03:08:36;;;;;;;1.60;0.90;;;;;;;12.32;100.00;100257.91;106199;1266;61218;-55
2024/04/09 03:11:13;;;;;;;3.20;0.80;;;;;;;12.30;100.00;100257.27;106066;1256;61488;-54
2024/04/09 03:13:40;;;;;;;1.90;0.70;;;;;;;12.29;100.00;100259.81;106247;1256;75003;-54
2024/04/09 03:16:12;;;;;;;2.20;0.70;;;;;;;12.29;100.00;100264.67;106287;1257;66212;-55
2024/04/09 03:18:39;;;;;;;2.50;0.80;;;;;;;12.30;100.00;100265.56;106569;1256;72621;-54
2024/04/09 03:21:06;;;;;;;2.90;0.90;;;;;;;12.30;100.00;100266.81;106420;1257;61337;-55
2024/04/09 03:23:33;;;;;;;1.20;0.70;;;;;;;12.30;100.00;100271.48;106520;1253;61689;-54
2024/04/09 03:26:00;;;;;;;2.00;0.80;;;;;;;12.32;100.00;100270.33;106021;1256;74500;-55
2024/04/09 03:28:27;;;;;;;2.00;0.80;;;;;;;12.33;100.00;100271.31;106703;1256;64888;-55
2024/04/09 03:30:57;;;;;;;1.90;0.80;;;;;;;12.35;100.00;100272.48;106116;1255;72203;-55
2024/04/09 03:33:24;;;;;;;1.40;0.90;;;;;;;12.36;100.00;100273.14;106290;1265;61294;-54
2024/04/09 03:36:02;;;;;;;3.60;0.90;;;;;;;12.38;100.00;100274.88;106326;1254;60156;-56
2024/04/09 03:38:29;;;;;;;2.40;1.00;;;;;;;12.38;100.00;100273.98;106036;1255;75116;-55
2024/04/09 03:40:56;;;;;;;5.60;1.00;;;;;;;12.38;100.00;100277.91;106064;1255;66104;-54
2024/04/09 03:43:23;;;;;;;1.50;1.00;;;;;;;12.38;100.00;100280.08;106244;1260;73095;-54
2024/04/09 03:46:10;;;;;;;1.70;0.70;;;;;;;12.38;100.00;100278.65;106080;1257;61262;-54
2024/04/09 03:48:42;;;;;;;4.70;1.00;;;;;;;12.39;100.00;100281.29;106244;1257;59969;-54
2024/04/09 03:51:10;;;;;;;5.00;1.40;;;;;;;12.40;100.00;100283.22;106397;1256;75097;-55
2024/04/09 03:53:37;;;;;;;2.20;0.80;;;;;;;12.42;100.00;100285.48;106129;1254;67267;-55
2024/04/09 03:56:04;;;;;;;1.70;0.80;;;;;;;12.42;100.00;100289.60;107388;1256;72782;-55
2024/04/09 03:58:41;;;;;;;5.50;1.00;;;;;;;12.43;100.00;100290.48;106234;1257;61248;-55
2024/04/09 04:01:08;;;;;;;1.50;0.90;;;;;;;12.47;100.00;100293.73;107225;1256;61350;-55
2024/04/09 04:03:46;;;;;;;5.20;1.00;;;;;;;12.52;100.00;100291.13;107780;1254;74984;-60
2024/04/09 04:06:13;;;;;;;6.30;0.80;;;;;;;12.57;100.00;100292.34;106122;1257;67164;-53
2024/04/09 04:08:41;;;;;;;1.80;1.10;;;;;;;12.63;100.00;100297.80;108574;1254;73056;-53
2024/04/09 04:11:10;;;;;;;1.10;0.90;;;;;;;12.69;100.00;100294.96;106989;1254;61555;-53
2024/04/09 04:13:38;;;;;;;5.70;1.10;;;;;;;12.78;100.00;100299.77;106319;1256;61197;-53
2024/04/09 04:16:06;;;;;;;3.70;0.90;;;;;;;12.96;100.00;100303.22;106573;1254;74669;-53
2024/04/09 04:18:36;;;;;;;5.30;0.80;;;;;;;13.24;100.00;100305.23;107107;1254;65810;-54
2024/04/09 04:21:04;;;;;;;2.20;1.00;;;;;;;13.61;100.00;100306.02;106023;1254;72844;-56
2024/04/09 04:23:35;;;;;;;3.50;0.80;;;;;;;14.04;100.00;100306.61;109257;1253;59712;-53
2024/04/09 04:26:09;;;;;;;1.20;0.70;;;;;;;14.51;100.00;100314.37;109136;1253;59252;-53
2024/04/09 04:28:37;;;;;;;1.60;1.10;;;;;;;15.02;100.00;100318.88;109205;1253;75668;-54
2024/04/09 04:31:05;;;;;;;1.40;0.80;;;;;;;15.53;100.00;100318.77;109143;1253;66864;-54
2024/04/09 04:33:32;;;;;;;2.70;0.90;;;;;;;16.03;100.00;100320.10;109096;1254;72645;-54
2024/04/09 04:35:59;;;;;;;3.30;0.70;;;;;;;16.48;100.00;100323.39;109177;1257;60401;-54
2024/04/09 04:38:27;;;;;;;3.50;0.70;;;;;;;16.90;100.00;100327.04;109237;1253;59439;-53
2024/04/09 04:40:54;;;;;;;3.40;0.90;;;;;;;17.29;100.00;100329.38;109152;1254;74362;-55
2024/04/09 04:43:20;;;;;;;3.30;0.70;;;;;;;17.66;100.00;100332.85;109189;1254;68025;-54
2024/04/09 04:45:47;;;;;;;1.70;0.80;;;;;;;18.00;100.00;100334.12;109104;1254;71394;-54
2024/04/09 04:48:14;;;;;;;2.30;0.80;;;;;;;18.22;100.00;100336.58;109101;1253;61348;-54
2024/04/09 04:50:41;;;;;;;2.10;0.70;;;;;;;18.26;100.00;100337.73;109174;1253;59234;-54
2024/04/09 04:53:08;;;;;;;1.30;0.80;;;;;;;18.24;100.00;100345.71;109121;1254;73124;-54
2024/04/09 04:55:35;;;;;;;3.80;0.90;;;;;;;18.14;100.00;100344.38;109187;1254;65753;-54
2024/04/09 04:58:02;;;;;;;2.40;0.90;;;;;;;17.99;100.00;100343.79;109066;1254;72552;-54
2024/04/09 05:00:29;;;;;;;2.40;0.70;;;;;;;17.82;100.00;100343.71;107794;1257;60303;-55
2024/04/09 05:02:56;;;;;;;1.00;0.70;;;;;;;17.63;100.00;100338.85;106124;1254;61307;-55
2024/04/09 05:05:24;;;;;;;1.40;0.70;;;;;;;17.45;100.00;100337.16;106986;1254;76148;-53
2024/04/09 05:07:51;;;;;;;2.40;0.90;;;;;;;17.34;100.00;100340.82;107649;1253;66767;-54
2024/04/09 05:10:19;;;;;;;3.20;0.80;;;;;;;17.25;100.00;100339.98;106743;1257;71404;-55
2024/04/09 05:12:47;;;;;;;0.90;0.60;;;;;;;17.19;100.00;100339.61;106161;1254;60154;-54
2024/04/09 05:15:14;;;;;;;1.90;0.60;;;;;;;17.16;100.00;100334.59;106305;1253;61346;-55
2024/04/09 05:17:42;;;;;;;1.00;0.70;;;;;;;17.14;100.00;100333.98;106934;1257;76068;-55
2024/04/09 05:20:12;;;;;;;3.20;0.80;;;;;;;17.14;100.00;100335.27;106361;1257;66024;-56
2024/04/09 05:22:44;;;;;;;4.20;0.60;;;;;;;17.15;100.00;100335.75;107440;1254;70900;-55
2024/04/09 05:25:12;;;;;;;3.40;0.60;;;;;;;17.18;100.00;100337.38;106171;1266;62120;-54
2024/04/09 05:27:38;;;;;;;1.40;0.60;;;;;;;17.22;100.00;100337.66;106378;1257;61343;-55
2024/04/09 05:30:06;;;;;;;1.20;0.60;;;;;;;17.23;100.00;100339.02;106160;1257;73431;-55
2024/04/09 05:32:41;;;;;;;0.90;0.50;;;;;;;17.24;100.00;100339.48;106058;1266;67265;-55
2024/04/09 05:35:09;;;;;;;0.90;0.50;;;;;;;17.26;100.00;100336.61;106257;1257;72565;-56
2024/04/09 05:37:36;;;;;;;3.40;0.40;;;;;;;17.31;100.00;100337.90;106200;1254;63762;-56
2024/04/09 05:40:10;;;;;;;2.20;0.50;;;;;;;17.37;100.00;100338.77;106159;1257;61323;-55
2024/04/09 05:42:37;;;;;;;2.80;0.50;;;;;;;17.42;100.00;100336.11;106168;1270;74637;-54
2024/04/09 05:45:07;;;;;;;0.60;0.40;;;;;;;17.45;100.00;100341.16;106634;1257;65469;-55
2024/04/09 05:47:34;;;;;;;1.10;0.50;;;;;;;17.50;100.00;100342.42;106379;1254;71091;-55
2024/04/09 05:50:03;;;;;;;0.80;0.40;;;;;;;17.57;100.00;100343.08;106116;1264;61116;-55
2024/04/09 05:52:31;;;;;;;1.80;0.40;;;;;;;17.65;100.00;100338.41;106492;1254;61401;-55
2024/04/09 05:54:58;;;;;;;2.50;0.50;;;;;;;17.72;100.00;100342.95;106488;1254;75052;-55
2024/04/09 05:57:25;;;;;;;1.30;0.40;;;;;;;17.78;100.00;100345.27;106198;1254;66416;-54
2024/04/09 05:59:54;;;;;;;0.50;0.40;;;;;;;17.85;100.00;100345.52;105974;1258;72882;-54
2024/04/09 06:02:21;;;;;;;2.80;0.50;;;;;;;17.93;100.00;100350.61;105995;1257;61110;-56
2024/04/09 06:04:49;;;;;;;0.60;0.40;;;;;;;18.00;100.00;100355.21;106098;1257;61320;-56
2024/04/09 06:07:16;;;;;;;0.50;0.40;;;;;;;18.06;100.00;100351.64;106126;1254;74539;-55
2024/04/09 06:09:43;;;;;;;0.60;0.40;;;;;;;18.13;100.00;100351.20;106025;1254;66939;-55
2024/04/09 06:12:10;;;;;;;2.30;0.50;;;;;;;18.20;100.00;100354.73;106150;1257;72560;-56
2024/04/09 06:14:37;;;;;;;0.80;0.40;;;;;;;18.27;100.00;100350.89;106170;1257;63035;-54
2024/04/09 06:17:03;;;;;;;1.00;0.50;;;;;;;18.34;100.00;100353.67;105789;1253;378107;-55
2024/04/09 06:20:45;;;;;;;1.20;0.50;;;;;;;18.49;100.00;100359.02;102757;1295;601115;-56
2024/04/09 06:23:12;;;;;;;0.60;0.40;;;;;;;18.57;100.00;100361.67;105704;1269;60088;-56
2024/04/09 06:25:39;;;;;;;0.70;0.40;;;;;;;18.67;100.00;100365.35;105371;1270;59724;-56
2024/04/09 06:28:06;;;;;;;0.50;0.40;;;;;;;18.76;100.00;100366.69;105378;1269;73555;-56
2024/04/09 06:30:35;;;;;;;4.10;0.40;;;;;;;18.83;100.00;100368.30;105315;1273;68146;-55
2024/04/09 06:33:02;;;;;;;2.30;0.60;;;;;;;18.89;100.00;100367.19;105598;1270;72604;-56
2024/04/09 06:35:29;;;;;;;3.60;0.40;;;;;;;18.97;100.00;100369.34;105294;1269;187348;-56
2024/04/09 06:37:56;;;;;;;2.50;0.40;;;;;;;19.05;100.00;100372.92;105520;1277;60018;-54
2024/04/09 06:40:23;;;;;;;1.20;0.40;;;;;;;19.13;100.00;100373.60;105589;1270;72922;-56
2024/04/09 06:42:50;;;;;;;0.80;0.30;;;;;;;19.20;100.00;100375.59;105344;1269;66480;-57
2024/04/09 06:45:20;;;;;;;0.70;0.40;;;;;;;19.28;100.00;100376.09;105409;1278;72557;-57
2024/04/09 06:47:47;;;;;;;1.00;0.40;;;;;;;19.34;100.00;100380.06;105375;1269;60988;-55
2024/04/09 06:50:15;;;;;;;0.70;0.30;;;;;;;19.38;100.00;100385.19;105380;1264;60553;-55
2024/04/09 06:52:42;;;;;;;2.10;0.30;;;;;;;19.46;100.00;100382.48;105343;1264;73787;-53
2024/04/09 06:55:09;;;;;;;0.20;0.20;;;;;;;19.54;100.00;100385.86;105467;1267;67058;-54
2024/04/09 06:57:37;;;;;;;0.40;0.30;;;;;;;19.63;100.00;100377.89;105466;1270;72503;-53
2024/04/09 07:00:06;;;;;;;0.60;0.30;;;;;;;19.73;100.00;100376.80;105515;1269;60548;-55
2024/04/09 07:02:34;;;;;;;0.40;0.30;;;;;;;19.82;100.00;100378.08;105522;1267;62019;-55
2024/04/09 07:05:01;;;;;;;1.10;0.40;;;;;;;19.91;100.00;100377.52;106638;1262;73278;-56
2024/04/09 07:07:28;;;;;;;0.90;0.30;;;;;;;20.00;100.00;100381.39;105604;1263;67519;-57
2024/04/09 07:09:55;;;;;;;0.50;0.30;;;;;;;20.07;100.00;100376.80;105646;1261;71696;-55
2024/04/09 07:12:21;;;;;;;2.30;0.40;;;;;;;20.16;100.00;100378.18;106048;1263;60447;-55
2024/04/09 07:14:48;;;;;;;0.40;0.30;;;;;;;20.22;100.00;100378.04;105733;1272;60557;-55
2024/04/09 07:17:15;;;;;;;2.30;0.30;;;;;;;20.27;100.00;100375.27;105793;1265;73575;-55
2024/04/09 07:19:42;;;;;;;0.40;0.30;;;;;;;20.30;100.00;100375.00;105695;1264;67136;-55
2024/04/09 07:22:09;;;;;;;0.40;0.30;;;;;;;20.35;100.00;100371.54;105659;1264;71716;-56
2024/04/09 07:24:36;;;;;;;0.70;0.30;;;;;;;20.42;100.00;100372.09;108590;1260;60165;-55
2024/04/09 07:27:03;;;;;;;1.20;0.40;;;;;;;20.51;100.00;100365.88;108800;1259;60129;-56
2024/04/09 07:29:31;;;;;;;0.30;0.30;;;;;;;20.59;100.00;100364.52;108648;1260;74097;-55
2024/04/09 07:31:58;;;;;;;3.40;0.30;;;;;;;20.64;100.00;100359.58;108810;1259;67020;-58
2024/04/09 07:34:25;;;;;;;1.90;0.30;;;;;;;20.68;100.00;100356.84;108729;1261;74132;-56
2024/04/09 07:36:51;;;;;;;4.00;0.30;;;;;;;20.74;100.00;100358.95;108688;1261;59125;-54
2024/04/09 07:39:18;;;;;;;0.20;0.20;;;;;;;20.82;100.00;100357.23;108845;1260;58336;-57
2024/04/09 07:42:56;;;;;;;5.60;0.30;;;;;;;20.97;100.00;100357.65;103096;1298;600271;-55
2024/04/09 07:45:23;;;;;;;0.60;0.20;;;;;;;21.03;100.00;100356.73;106497;1266;59683;-58
2024/04/09 07:47:51;;;;;;;0.50;0.30;;;;;;;21.12;100.00;100357.65;105374;1270;59782;-56
2024/04/09 07:50:19;;;;;;;0.30;0.20;;;;;;;21.21;100.00;100354.58;105345;1270;73151;-56
2024/04/09 07:52:45;;;;;;;0.40;0.20;;;;;;;21.30;100.00;100353.41;105514;1271;67099;-57
2024/04/09 07:55:13;;;;;;;0.20;0.20;;;;;;;21.38;100.00;100350.02;105251;1273;72366;-55
2024/04/09 07:57:40;;;;;;;0.40;0.20;;;;;;;21.44;100.00;100347.67;105220;1269;158523;-55
2024/04/09 08:00:17;;;;;;;1.70;0.30;;;;;;;21.51;100.00;100345.07;105586;1267;59712;-55
2024/04/09 08:02:44;;;;;;;0.70;0.20;;;;;;;21.60;100.00;100345.27;106092;1264;73169;-55
2024/04/09 08:05:12;;;;;;;1.50;0.20;;;;;;;21.68;100.00;100338.54;105309;1276;69420;-56
2024/04/09 08:07:39;;;;;;;0.50;0.20;;;;;;;21.75;100.00;100330.41;105344;1264;73644;-55
2024/04/09 08:10:19;;;;;;;0.80;0.30;;;;;;;21.82;100.00;100332.23;105284;1264;60523;-56
2024/04/09 08:12:50;;;;;;;2.10;0.10;;;;;;;21.89;100.00;100327.20;105606;1264;60572;-56
2024/04/09 08:15:18;;;;;;;1.00;0.20;;;;;;;21.97;100.00;100329.50;105341;1274;74795;-53
2024/04/09 08:17:48;;;;;;;2.80;0.20;;;;;;;22.04;100.00;100325.24;105518;1269;66614;-55
2024/04/09 08:20:16;;;;;;;1.80;0.20;;;;;;;22.10;100.00;100319.42;105690;1264;72511;-57
2024/04/09 08:22:49;;;;;;;1.20;0.20;;;;;;;22.16;100.00;100319.63;105830;1264;61337;-55
2024/04/09 08:25:17;;;;;;;0.50;0.20;;;;;;;22.21;100.00;100316.02;105499;1264;62016;-53
2024/04/09 08:27:43;;;;;;;0.20;0.20;;;;;;;22.24;100.00;100314.16;105486;1267;73767;-53
2024/04/09 08:30:12;;;;;;;1.60;0.30;;;;;;;22.28;100.00;100310.13;105379;1270;65637;-56
2024/04/09 08:32:41;;;;;;;1.30;0.20;;;;;;;22.34;100.00;100310.56;105450;1273;72902;-54
2024/04/09 08:35:09;;;;;;;0.50;0.30;;;;;;;22.38;100.00;100310.71;105911;1264;60574;-54
2024/04/09 08:37:44;;;;;;;2.20;0.20;;;;;;;22.40;100.00;100311.25;105772;1264;60575;-52
2024/04/09 08:40:11;;;;;;;0.40;0.20;;;;;;;22.41;100.00;100310.22;105645;1264;72336;-54
2024/04/09 08:42:38;;;;;;;0.30;0.20;;;;;;;22.44;100.00;100306.12;105326;1271;66084;-54
2024/04/09 08:45:11;;;;;;;0.20;0.20;;;;;;;22.48;100.00;100301.06;105331;1268;71149;-55
2024/04/09 08:47:38;;;;;;;0.40;0.30;;;;;;;22.52;100.00;100305.43;105444;1270;61472;-55
2024/04/09 08:50:05;;;;;;;1.60;0.20;;;;;;;22.57;100.00;100299.60;105248;1267;60421;-53
2024/04/09 08:52:36;;;;;;;0.60;0.30;;;;;;;22.64;100.00;100296.85;105393;1265;72984;-54
2024/04/09 08:55:05;;;;;;;1.70;0.20;;;;;;;22.70;100.00;100299.11;105336;1270;64684;-57
2024/04/09 08:57:32;;;;;;;0.60;0.20;;;;;;;22.74;100.00;100292.33;105332;1264;73747;-56
2024/04/09 09:00:00;;;;;;;0.50;0.30;;;;;;;22.75;100.00;100290.02;105324;1278;60763;-55
2024/04/09 09:02:27;;;;;;;1.50;0.20;;;;;;;22.74;100.00;100290.08;105495;1266;61072;-53
2024/04/09 09:04:54;;;;;;;1.30;0.30;;;;;;;22.74;100.00;100283.52;105535;1270;73543;-57
2024/04/09 09:07:24;;;;;;;0.30;0.30;;;;;;;22.75;100.00;100278.30;105471;1270;67040;-54
2024/04/09 09:09:59;;;;;;;1.00;0.20;;;;;;;22.78;100.00;100275.45;105569;1263;72651;-57
2024/04/09 09:12:25;;;;;;;0.30;0.30;;;;;;;22.83;100.00;100275.75;107225;1266;59367;-56
2024/04/09 09:14:54;;;;;;;3.30;0.30;;;;;;;22.87;100.00;100269.02;105432;1271;60601;-56
2024/04/09 09:17:21;;;;;;;0.50;0.30;;;;;;;22.89;100.00;100263.48;105858;1264;72585;-54
2024/04/09 09:20:08;;;;;;;0.50;0.30;;;;;;;22.90;100.00;100265.98;105161;1271;65808;-56
2024/04/09 09:22:45;;;;;;;0.60;0.30;;;;;;;22.94;100.00;100260.31;107165;1267;72087;-54
2024/04/09 09:25:18;;;;;;;2.40;0.20;;;;;;;22.96;100.00;100255.83;105559;1269;60564;-53
2024/04/09 09:27:45;;;;;;;3.70;0.30;;;;;;;22.99;100.00;100259.59;105472;1263;60418;-56
2024/04/09 09:30:13;;;;;;;0.20;0.20;;;;;;;23.04;100.00;100255.91;105678;1276;74559;-54
2024/04/09 09:32:49;;;;;;;2.30;0.20;;;;;;;23.09;100.00;100253.08;105600;1267;67751;-56
2024/04/09 09:35:17;;;;;;;0.60;0.20;;;;;;;23.11;100.00;100246.25;105381;1275;72610;-57
2024/04/09 09:37:48;;;;;;;0.50;0.30;;;;;;;23.14;100.00;100247.88;105374;1269;60467;-55
2024/04/09 09:40:15;;;;;;;0.20;0.20;;;;;;;23.18;100.00;100249.84;108494;1263;58830;-55
2024/04/09 09:42:44;;;;;;;1.00;0.20;;;;;;;23.22;100.00;100246.48;105783;1269;73544;-56
2024/04/09 09:45:12;;;;;;;0.20;0.20;;;;;;;23.25;100.00;100245.61;105383;1268;66087;-57
2024/04/09 09:47:40;;;;;;;0.90;0.20;;;;;;;23.30;100.00;100243.38;108614;1264;72585;-55
2024/04/09 09:50:08;;;;;;;0.50;0.20;;;;;;;23.33;100.00;100236.80;108388;1263;58979;-56
2024/04/09 09:52:44;;;;;;;0.20;0.20;;;;;;;23.35;100.00;100236.30;108524;1263;60365;-57
2024/04/09 09:55:11;;;;;;;0.40;0.20;;;;;;;23.36;100.00;100236.01;108469;1264;74021;-53
2024/04/09 09:57:38;;;;;;;0.50;0.20;;;;;;;23.38;100.00;100233.23;108437;1266;67081;-55
2024/04/09 10:00:12;;;;;;;0.30;0.20;;;;;;;23.41;100.00;100230.42;108533;1263;72554;-58
2024/04/09 10:02:42;;;;;;;0.30;0.20;;;;;;;23.42;100.00;100228.31;107682;1269;60518;-55
2024/04/09 10:05:17;;;;;;;0.30;0.20;;;;;;;23.41;100.00;100223.27;105447;1269;60558;-56
2024/04/09 10:07:48;;;;;;;0.20;0.20;;;;;;;23.40;100.00;100218.39;108407;1263;73789;-55
2024/04/09 10:10:29;;;;;;;0.30;0.20;;;;;;;23.42;100.00;100220.30;108600;1263;67401;-55
2024/04/09 10:13:06;;;;;;;0.30;0.20;;;;;;;23.44;100.00;100214.09;107382;1269;72414;-55
2024/04/09 10:15:34;;;;;;;0.30;0.20;;;;;;;23.45;100.00;100210.88;105959;1268;60491;-55
2024/04/09 10:18:04;;;;;;;0.30;0.20;;;;;;;23.47;100.00;100211.38;106476;1264;60514;-55
2024/04/09 10:20:35;;;;;;;0.20;0.10;;;;;;;23.49;100.00;100208.40;105581;1269;74175;-58
2024/04/09 10:23:03;;;;;;;2.00;0.20;;;;;;;23.53;100.00;100213.55;105641;1270;66193;-55
2024/04/09 10:25:36;;;;;;;0.40;0.20;;;;;;;23.56;100.00;100206.85;105493;1269;72582;-54
2024/04/09 10:28:06;;;;;;;0.20;0.20;;;;;;;23.58;100.00;100207.95;105301;1280;60565;-55
2024/04/09 10:30:34;;;;;;;0.70;0.30;;;;;;;23.61;100.00;100199.42;105580;1265;60476;-56
2024/04/09 10:33:02;;;;;;;2.00;0.20;;;;;;;23.63;100.00;100198.90;106069;1268;74127;-55
2024/04/09 10:35:30;;;;;;;0.20;0.20;;;;;;;23.63;100.00;100195.81;106353;1267;65997;-55
2024/04/09 10:37:58;;;;;;;0.40;0.20;;;;;;;23.63;100.00;100195.75;105542;1263;72559;-58
2024/04/09 10:40:25;;;;;;;2.60;0.20;;;;;;;23.63;100.00;100190.08;105561;1269;60299;-55
2024/04/09 10:42:52;;;;;;;0.30;0.20;;;;;;;23.63;100.00;100180.77;105423;1267;60298;-56
2024/04/09 10:45:19;;;;;;;1.10;0.20;;;;;;;23.65;100.00;100178.53;105378;1267;73547;-55
2024/04/09 10:47:46;;;;;;;0.30;0.20;;;;;;;23.68;100.00;100175.25;105607;1267;67104;-53
2024/04/09 10:50:14;;;;;;;0.50;0.20;;;;;;;23.70;100.00;100171.58;105327;1269;73122;-54
2024/04/09 10:52:41;;;;;;;1.60;0.20;;;;;;;23.73;100.00;100172.31;108486;1263;60908;-56
2024/04/09 10:55:14;;;;;;;0.40;0.20;;;;;;;23.72;100.00;100166.09;108485;1263;60037;-55
2024/04/09 10:57:42;;;;;;;0.70;0.20;;;;;;;23.72;100.00;100160.77;108517;1266;72722;-55
2024/04/09 11:00:10;;;;;;;0.30;0.20;;;;;;;23.73;100.00;100155.89;108402;1265;66404;-53
2024/04/09 11:02:39;;;;;;;2.00;0.20;;;;;;;23.75;100.00;100147.28;108451;1263;71415;-53
2024/04/09 11:05:06;;;;;;;1.30;0.20;;;;;;;23.79;100.00;100149.54;108396;1266;60440;-54
2024/04/09 11:07:42;;;;;;;0.50;0.30;;;;;;;23.83;100.00;100146.78;108419;1265;61201;-54
2024/04/09 11:10:19;;;;;;;0.50;0.20;;;;;;;23.86;100.00;100145.55;108451;1264;73857;-54
2024/04/09 11:12:53;;;;;;;1.80;0.30;;;;;;;23.88;100.00;100139.80;108430;1263;67479;-53
2024/04/09 11:15:20;;;;;;;0.40;0.20;;;;;;;23.87;100.00;100133.66;108452;1264;73475;-54
2024/04/09 11:17:47;;;;;;;1.90;0.80;;;;;;;23.87;100.00;100134.24;108426;1266;60088;-53